createdAt,value
2023-10-19T00:05:33.001Z,58.50
2023-10-19T00:11:25.887Z,59.90
2023-10-19T00:17:27.768Z,48.70
2023-10-19T00:22:58.582Z,46.10
2023-10-19T00:29:00.607Z,49.00
2023-10-19T00:35:22.489Z,50.70
2023-10-19T00:41:53.249Z,48.50
2023-10-19T00:48:15.199Z,43.90
2023-10-19T00:54:48.407Z,41.60
2023-10-19T01:01:10.397Z,39.80
2023-10-19T01:07:28.543Z,39.30
2023-10-19T01:13:50.757Z,39.90
2023-10-19T01:20:12.531Z,40.70
2023-10-19T01:25:57.092Z,42.70
2023-10-19T01:32:19.098Z,41.60
2023-10-19T01:38:40.968Z,40.10
2023-10-19T01:45:02.722Z,42.80
2023-10-19T01:50:24.841Z,46.50
2023-10-19T01:55:28.493Z,44.30
2023-10-19T02:00:31.346Z,45.00
2023-10-19T02:06:49.820Z,36.90
2023-10-19T02:13:14.701Z,41.20
2023-10-19T02:19:36.598Z,42.20
2023-10-19T02:25:58.432Z,40.10
2023-10-19T02:32:20.285Z,42.70
2023-10-19T02:38:42.045Z,36.10
2023-10-19T02:44:19.575Z,35.70
2023-10-19T02:50:21.519Z,38.30
2023-10-19T02:55:43.575Z,38.20
2023-10-19T03:00:47.369Z,36.60
2023-10-19T03:05:49.436Z,36.70
2023-10-19T03:11:05.256Z,37.30
2023-10-19T03:16:10.386Z,36.70
2023-10-19T03:22:12.212Z,39.80
2023-10-19T03:28:34.219Z,36.90
2023-10-19T03:34:56.097Z,39.80
2023-10-19T03:40:27.022Z,37.90
2023-10-19T03:45:34.914Z,36.30
2023-10-19T03:50:38.305Z,36.90
2023-10-19T03:55:40.434Z,35.40
2023-10-19T04:00:43.070Z,31.30
2023-10-19T04:06:45.070Z,37.80
2023-10-19T04:12:07.745Z,35.30
2023-10-19T04:17:13.542Z,35.50
2023-10-19T04:22:23.972Z,32.80
2023-10-19T04:27:28.485Z,35.30
2023-10-19T04:32:31.907Z,34.80
2023-10-19T04:37:34.116Z,37.10
2023-10-19T04:43:35.986Z,30.90
2023-10-19T04:49:57.864Z,35.80
2023-10-19T04:56:19.631Z,33.00
2023-10-19T05:02:41.650Z,33.40
2023-10-19T05:09:03.754Z,31.70
2023-10-19T05:14:25.876Z,28.80
2023-10-19T05:19:28.163Z,30.60
2023-10-19T05:24:31.474Z,31.30
2023-10-19T05:30:33.529Z,31.90
2023-10-19T05:35:56.082Z,30.50
2023-10-19T05:41:57.990Z,30.20
2023-10-19T05:48:19.754Z,30.90
2023-10-19T05:54:41.573Z,32.30
2023-10-19T06:01:03.418Z,29.10
2023-10-19T06:06:26.126Z,29.60
2023-10-19T06:11:33.681Z,26.60
2023-10-19T06:16:36.065Z,29.70
2023-10-19T06:21:38.334Z,28.30
2023-10-19T06:26:40.385Z,27.60
2023-10-19T06:31:42.546Z,27.00
2023-10-19T06:37:44.567Z,28.60
2023-10-19T06:44:06.569Z,28.30
2023-10-19T06:50:28.338Z,24.40
2023-10-19T06:56:50.066Z,26.60
2023-10-19T07:02:14.473Z,27.40
2023-10-19T07:08:16.386Z,28.80
2023-10-19T07:14:38.221Z,29.00
2023-10-19T07:21:00.019Z,28.20
2023-10-19T07:26:24.121Z,27.10
2023-10-19T07:31:28.802Z,27.70
2023-10-19T07:36:32.500Z,26.90
2023-10-19T07:41:37.284Z,25.60
2023-10-19T07:46:39.482Z,25.50
2023-10-19T07:52:47.620Z,23.40
2023-10-19T07:58:09.957Z,21.90
2023-10-19T08:03:14.978Z,21.60
2023-10-19T08:08:17.406Z,22.30
2023-10-19T08:13:19.548Z,21.20
2023-10-19T08:18:22.321Z,20.60
2023-10-19T08:23:28.891Z,23.00
2023-10-19T08:28:31.587Z,22.60
2023-10-19T08:33:35.442Z,23.20
2023-10-19T08:38:37.791Z,22.80
2023-10-19T08:43:40.900Z,25.40
2023-10-19T08:48:43.548Z,22.10
2023-10-19T08:53:47.904Z,22.80
2023-10-19T08:58:50.323Z,22.60
2023-10-19T09:03:53.053Z,21.90
2023-10-19T09:08:55.465Z,21.50
2023-10-19T09:13:58.773Z,23.60
2023-10-19T09:19:00.910Z,22.20
2023-10-19T09:24:03.100Z,23.10
2023-10-19T09:30:04.968Z,22.30
2023-10-19T09:36:26.782Z,24.50
2023-10-19T09:42:48.657Z,30.20
2023-10-19T09:49:10.458Z,29.90
2023-10-19T09:54:45.807Z,30.40
2023-10-19T09:59:52.894Z,25.90
2023-10-19T10:04:55.174Z,24.30
2023-10-19T10:09:57.508Z,24.90
2023-10-19T10:14:59.848Z,24.30
2023-10-19T10:20:20.217Z,21.80
2023-10-19T10:25:29.304Z,21.00
2023-10-19T10:30:32.767Z,21.40
2023-10-19T10:35:38.189Z,24.60
2023-10-19T10:41:43.217Z,25.10
2023-10-19T10:48:05.112Z,25.30
2023-10-19T10:54:29.713Z,21.80
2023-10-19T11:01:10.277Z,21.10
2023-10-19T11:06:56.690Z,22.80
2023-10-19T11:11:58.850Z,20.20
2023-10-19T11:17:16.482Z,21.40
2023-10-19T11:27:28.018Z,20.20
2023-10-19T11:32:39.570Z,21.30
2023-10-19T11:37:56.710Z,22.70
2023-10-19T11:42:59.976Z,20.10
2023-10-19T11:48:02.907Z,22.00
2023-10-19T11:53:07.048Z,21.30
2023-10-19T11:59:09.000Z,22.70
2023-10-19T12:04:31.669Z,22.90
2023-10-19T12:09:34.239Z,32.80
2023-10-19T12:14:40.002Z,35.10
2023-10-19T12:19:42.274Z,31.00
2023-10-19T12:24:45.738Z,23.20
2023-10-19T12:29:48.034Z,24.10
2023-10-19T12:34:59.111Z,23.70
2023-10-19T12:40:01.335Z,25.40
2023-10-19T12:45:04.192Z,25.80
2023-10-19T12:50:08.251Z,25.90
2023-10-19T12:55:10.817Z,24.20
2023-10-19T13:00:27.263Z,26.20
2023-10-19T13:05:33.061Z,27.00
2023-10-19T13:10:38.093Z,28.00
2023-10-19T13:15:41.699Z,28.80
2023-10-19T13:20:45.345Z,27.00
2023-10-19T13:25:51.614Z,29.10
2023-10-19T13:30:55.204Z,26.50
2023-10-19T13:35:57.279Z,29.00
2023-10-19T13:40:59.443Z,29.50
2023-10-19T13:46:02.945Z,30.90
2023-10-19T13:51:14.745Z,32.40
2023-10-19T13:56:17.776Z,32.40
2023-10-19T14:01:20.236Z,30.20
2023-10-19T14:06:23.730Z,32.50
2023-10-19T14:11:26.113Z,32.80
2023-10-19T14:16:28.620Z,31.40
2023-10-19T14:21:31.245Z,30.90
2023-10-19T14:26:33.352Z,31.40
2023-10-19T14:31:35.534Z,31.50
2023-10-19T14:36:42.945Z,31.00
2023-10-19T14:42:22.952Z,31.60
2023-10-19T14:47:27.950Z,32.80
2023-10-19T14:52:30.163Z,36.20
2023-10-19T14:57:34.612Z,33.90
2023-10-19T15:03:36.656Z,32.90
2023-10-19T15:09:58.628Z,35.00
2023-10-19T15:15:20.835Z,38.80
2023-10-19T15:20:28.549Z,41.30
2023-10-19T15:25:30.866Z,43.00
2023-10-19T15:30:33.114Z,44.30
2023-10-19T15:35:38.830Z,35.10
2023-10-19T15:40:41.676Z,35.10
2023-10-19T15:45:47.138Z,44.00
2023-10-19T15:50:49.516Z,42.00
2023-10-19T15:55:52.545Z,43.30
2023-10-19T16:01:02.636Z,45.90
2023-10-19T16:06:08.150Z,43.60
2023-10-19T16:11:10.400Z,35.20
2023-10-19T16:16:13.798Z,33.40
2023-10-19T16:21:15.872Z,33.40
2023-10-19T16:26:18.144Z,37.30
2023-10-19T16:31:26.912Z,36.20
2023-10-19T16:36:31.231Z,38.40
2023-10-19T16:41:33.494Z,37.30
2023-10-19T16:46:39.548Z,35.60
2023-10-19T16:51:42.036Z,32.60
2023-10-19T16:57:06.854Z,29.60
2023-10-19T17:02:11.419Z,32.70
2023-10-19T17:07:13.642Z,30.90
2023-10-19T17:12:15.790Z,28.70
2023-10-19T17:17:21.111Z,29.50
2023-10-19T17:22:23.521Z,28.60
2023-10-19T17:27:25.615Z,30.00
2023-10-19T17:32:29.042Z,38.80
2023-10-19T17:37:33.351Z,36.60
2023-10-19T17:42:47.570Z,39.90
2023-10-19T17:47:53.632Z,44.80
2023-10-19T17:52:55.975Z,48.90
2023-10-19T17:57:59.506Z,39.80
2023-10-19T18:03:13.177Z,44.50
2023-10-19T18:08:16.268Z,44.70
2023-10-19T18:13:18.870Z,46.40
2023-10-19T18:18:22.632Z,43.80
2023-10-19T18:23:25.675Z,48.20
2023-10-19T18:28:27.964Z,46.00
2023-10-19T18:33:35.062Z,48.90
2023-10-19T18:38:38.057Z,46.00
2023-10-19T18:43:40.312Z,47.60
2023-10-19T18:48:42.481Z,44.90
2023-10-19T18:53:45.560Z,40.60
2023-10-19T18:58:48.204Z,48.00
2023-10-19T19:03:51.793Z,44.00
2023-10-19T19:08:54.050Z,45.30
2023-10-19T19:13:56.220Z,53.90
2023-10-19T19:18:58.419Z,59.10
2023-10-19T19:24:00.556Z,59.90
2023-10-19T19:29:02.998Z,74.10
2023-10-19T19:34:05.099Z,63.30
2023-10-19T19:39:08.904Z,51.30
2023-10-19T19:44:11.292Z,43.40
2023-10-19T19:50:13.315Z,43.50
2023-10-19T19:56:35.165Z,48.10
2023-10-19T20:02:57.037Z,48.90
2023-10-19T20:09:28.900Z,47.60
2023-10-19T20:15:00.899Z,45.80
2023-10-19T20:21:02.726Z,51.00
2023-10-19T20:27:24.568Z,56.00
2023-10-19T20:33:46.276Z,55.10
2023-10-19T20:39:31.569Z,52.80
2023-10-19T20:44:43.121Z,53.10
2023-10-19T20:49:46.429Z,46.90
2023-10-19T20:54:48.669Z,49.30
2023-10-19T20:59:50.977Z,52.20
2023-10-19T21:05:55.288Z,52.90
2023-10-19T21:11:04.290Z,57.00
2023-10-19T21:16:09.440Z,53.70
2023-10-19T21:21:16.150Z,58.90
2023-10-19T21:26:18.427Z,55.40
2023-10-19T21:31:20.936Z,51.90
2023-10-19T21:36:23.208Z,51.50
2023-10-19T21:41:27.849Z,51.50
2023-10-19T21:46:31.785Z,53.70
2023-10-19T21:51:34.053Z,49.00
2023-10-19T21:56:36.257Z,51.50
2023-10-19T22:01:40.871Z,51.30
2023-10-19T22:07:42.870Z,50.80
2023-10-19T22:14:04.643Z,51.70
2023-10-19T22:20:26.537Z,52.80
2023-10-19T22:25:48.699Z,52.90
2023-10-19T22:31:50.516Z,52.50
2023-10-19T22:38:12.355Z,50.60
2023-10-19T22:44:34.388Z,44.30
2023-10-19T22:50:56.296Z,49.90
2023-10-19T22:56:18.364Z,48.60
2023-10-19T23:02:20.342Z,44.50
2023-10-19T23:08:42.212Z,43.20
2023-10-19T23:15:04.109Z,43.50
2023-10-19T23:21:25.917Z,43.30
2023-10-19T23:26:48.286Z,41.30
2023-10-19T23:31:53.152Z,41.00
2023-10-19T23:36:55.257Z,39.80
2023-10-19T23:41:57.307Z,41.90
2023-10-19T23:47:00.054Z,46.20
2023-10-19T23:52:02.341Z,43.30
2023-10-19T23:58:12.068Z,41.00
